sensor_id;sensor_type;location;lat;lon;timestamp;P1;durP1;ratioP1;P2;durP2;ratioP2
56581;SDS011;42463;52.214;21.238;2022-09-27T00:01:12;35.30;;;24.40;;
56581;SDS011;42463;52.214;21.238;2022-09-27T00:03:37;38.70;;;25.20;;
56581;SDS011;42463;52.214;21.238;2022-09-27T00:06:04;33.30;;;24.90;;
56581;SDS011;42463;52.214;21.238;2022-09-27T00:08:32;35.80;;;25.20;;
56581;SDS011;42463;52.214;21.238;2022-09-27T00:10:58;35.20;;;24.90;;
56581;SDS011;42463;52.214;21.238;2022-09-27T00:13:24;31.50;;;23.50;;
56581;SDS011;42463;52.214;21.238;2022-09-27T00:15:54;37.50;;;25.30;;
56581;SDS011;42463;52.214;21.238;2022-09-27T00:18:19;34.90;;;24.10;;
56581;SDS011;42463;52.214;21.238;2022-09-27T00:20:43;35.90;;;25.20;;
56581;SDS011;42463;52.214;21.238;2022-09-27T00:23:08;38.60;;;25.50;;
56581;SDS011;42463;52.214;21.238;2022-09-27T00:25:32;37.00;;;24.70;;
56581;SDS011;42463;52.214;21.238;2022-09-27T00:27:57;42.50;;;26.30;;
56581;SDS011;42463;52.214;21.238;2022-09-27T00:30:22;42.00;;;26.10;;
56581;SDS011;42463;52.214;21.238;2022-09-27T00:32:46;45.40;;;25.80;;
56581;SDS011;42463;52.214;21.238;2022-09-27T00:35:13;31.40;;;22.50;;
56581;SDS011;42463;52.214;21.238;2022-09-27T00:37:37;34.90;;;23.40;;
56581;SDS011;42463;52.214;21.238;2022-09-27T00:40:03;32.70;;;22.50;;
56581;SDS011;42463;52.214;21.238;2022-09-27T00:42:29;30.00;;;21.90;;
56581;SDS011;42463;52.214;21.238;2022-09-27T00:47:44;28.50;;;21.60;;
56581;SDS011;42463;52.214;21.238;2022-09-27T00:50:15;34.40;;;22.10;;
56581;SDS011;42463;52.214;21.238;2022-09-27T00:52:47;31.30;;;22.10;;
56581;SDS011;42463;52.214;21.238;2022-09-27T00:55:18;32.30;;;21.90;;
56581;SDS011;42463;52.214;21.238;2022-09-27T00:57:47;32.90;;;22.50;;
56581;SDS011;42463;52.214;21.238;2022-09-27T01:04:08;31.50;;;22.20;;
56581;SDS011;42463;52.214;21.238;2022-09-27T01:06:35;31.90;;;22.10;;
56581;SDS011;42463;52.214;21.238;2022-09-27T01:09:01;32.00;;;22.00;;
56581;SDS011;42463;52.214;21.238;2022-09-27T01:11:33;31.40;;;22.40;;
56581;SDS011;42463;52.214;21.238;2022-09-27T01:14:09;30.60;;;22.40;;
56581;SDS011;42463;52.214;21.238;2022-09-27T01:16:54;32.90;;;22.80;;
56581;SDS011;42463;52.214;21.238;2022-09-27T01:19:30;34.60;;;22.40;;
56581;SDS011;42463;52.214;21.238;2022-09-27T01:22:13;37.00;;;23.60;;
56581;SDS011;42463;52.214;21.238;2022-09-27T01:24:53;34.20;;;23.00;;
56581;SDS011;42463;52.214;21.238;2022-09-27T01:27:35;31.80;;;22.40;;
56581;SDS011;42463;52.214;21.238;2022-09-27T01:30:22;30.40;;;22.80;;
56581;SDS011;42463;52.214;21.238;2022-09-27T01:32:51;34.70;;;23.90;;
56581;SDS011;42463;52.214;21.238;2022-09-27T01:35:28;34.00;;;23.50;;
56581;SDS011;42463;52.214;21.238;2022-09-27T01:38:00;34.40;;;23.90;;
56581;SDS011;42463;52.214;21.238;2022-09-27T01:40:35;37.20;;;23.80;;
56581;SDS011;42463;52.214;21.238;2022-09-27T01:43:29;37.30;;;24.10;;
56581;SDS011;42463;52.214;21.238;2022-09-27T01:46:02;38.10;;;24.70;;
56581;SDS011;42463;52.214;21.238;2022-09-27T01:48:49;39.50;;;25.10;;
56581;SDS011;42463;52.214;21.238;2022-09-27T01:51:18;34.70;;;23.80;;
56581;SDS011;42463;52.214;21.238;2022-09-27T01:53:47;38.60;;;23.50;;
56581;SDS011;42463;52.214;21.238;2022-09-27T01:56:45;38.80;;;23.90;;
56581;SDS011;42463;52.214;21.238;2022-09-27T01:59:17;41.60;;;26.00;;
56581;SDS011;42463;52.214;21.238;2022-09-27T02:01:52;38.70;;;24.70;;
56581;SDS011;42463;52.214;21.238;2022-09-27T02:04:22;39.30;;;25.30;;
56581;SDS011;42463;52.214;21.238;2022-09-27T02:07:01;37.30;;;23.50;;
56581;SDS011;42463;52.214;21.238;2022-09-27T02:09:31;39.60;;;24.80;;
56581;SDS011;42463;52.214;21.238;2022-09-27T02:12:24;33.70;;;22.40;;
56581;SDS011;42463;52.214;21.238;2022-09-27T02:14:54;43.50;;;25.90;;
56581;SDS011;42463;52.214;21.238;2022-09-27T02:17:22;41.10;;;26.40;;
56581;SDS011;42463;52.214;21.238;2022-09-27T02:19:58;40.30;;;24.10;;
56581;SDS011;42463;52.214;21.238;2022-09-27T02:22:36;46.10;;;26.00;;
56581;SDS011;42463;52.214;21.238;2022-09-27T02:25:10;39.10;;;25.60;;
56581;SDS011;42463;52.214;21.238;2022-09-27T02:27:39;43.10;;;26.50;;
56581;SDS011;42463;52.214;21.238;2022-09-27T02:30:14;44.10;;;26.40;;
56581;SDS011;42463;52.214;21.238;2022-09-27T02:32:41;45.20;;;26.70;;
56581;SDS011;42463;52.214;21.238;2022-09-27T02:35:08;44.70;;;25.00;;
56581;SDS011;42463;52.214;21.238;2022-09-27T02:37:38;44.00;;;25.00;;
56581;SDS011;42463;52.214;21.238;2022-09-27T02:40:04;47.50;;;27.20;;
56581;SDS011;42463;52.214;21.238;2022-09-27T02:42:30;49.20;;;27.70;;
56581;SDS011;42463;52.214;21.238;2022-09-27T02:44:56;44.30;;;25.90;;
56581;SDS011;42463;52.214;21.238;2022-09-27T02:47:27;44.60;;;27.60;;
56581;SDS011;42463;52.214;21.238;2022-09-27T02:50:02;47.10;;;27.00;;
56581;SDS011;42463;52.214;21.238;2022-09-27T02:53:10;44.60;;;26.10;;
56581;SDS011;42463;52.214;21.238;2022-09-27T02:55:55;46.40;;;27.40;;
56581;SDS011;42463;52.214;21.238;2022-09-27T02:58:49;46.90;;;25.80;;
56581;SDS011;42463;52.214;21.238;2022-09-27T03:01:35;50.10;;;27.70;;
56581;SDS011;42463;52.214;21.238;2022-09-27T03:04:19;51.40;;;26.70;;
56581;SDS011;42463;52.214;21.238;2022-09-27T03:06:52;51.20;;;28.60;;
56581;SDS011;42463;52.214;21.238;2022-09-27T03:09:19;46.00;;;27.30;;
56581;SDS011;42463;52.214;21.238;2022-09-27T03:11:45;48.50;;;26.60;;
56581;SDS011;42463;52.214;21.238;2022-09-27T03:14:10;48.00;;;27.50;;
56581;SDS011;42463;52.214;21.238;2022-09-27T03:16:40;48.80;;;27.10;;
56581;SDS011;42463;52.214;21.238;2022-09-27T03:19:40;49.10;;;26.40;;
56581;SDS011;42463;52.214;21.238;2022-09-27T03:22:40;45.40;;;26.40;;
56581;SDS011;42463;52.214;21.238;2022-09-27T03:25:05;43.30;;;25.90;;
56581;SDS011;42463;52.214;21.238;2022-09-27T03:27:31;45.20;;;26.30;;
56581;SDS011;42463;52.214;21.238;2022-09-27T03:29:57;47.40;;;27.10;;
56581;SDS011;42463;52.214;21.238;2022-09-27T03:32:22;48.40;;;27.20;;
56581;SDS011;42463;52.214;21.238;2022-09-27T03:35:25;46.90;;;27.10;;
56581;SDS011;42463;52.214;21.238;2022-09-27T03:37:50;41.50;;;26.20;;
56581;SDS011;42463;52.214;21.238;2022-09-27T03:40:15;49.30;;;28.40;;
56581;SDS011;42463;52.214;21.238;2022-09-27T03:42:39;48.60;;;28.00;;
56581;SDS011;42463;52.214;21.238;2022-09-27T03:45:04;42.40;;;25.90;;
56581;SDS011;42463;52.214;21.238;2022-09-27T03:47:30;45.90;;;27.00;;
56581;SDS011;42463;52.214;21.238;2022-09-27T03:49:55;46.60;;;27.00;;
56581;SDS011;42463;52.214;21.238;2022-09-27T03:52:19;43.30;;;24.40;;
56581;SDS011;42463;52.214;21.238;2022-09-27T03:54:44;41.60;;;25.20;;
56581;SDS011;42463;52.214;21.238;2022-09-27T03:57:09;42.90;;;25.70;;
56581;SDS011;42463;52.214;21.238;2022-09-27T03:59:36;38.10;;;23.50;;
56581;SDS011;42463;52.214;21.238;2022-09-27T04:02:20;45.00;;;27.60;;
56581;SDS011;42463;52.214;21.238;2022-09-27T04:05:04;45.40;;;26.30;;
56581;SDS011;42463;52.214;21.238;2022-09-27T04:07:29;45.40;;;26.90;;
56581;SDS011;42463;52.214;21.238;2022-09-27T04:09:54;44.70;;;26.50;;
56581;SDS011;42463;52.214;21.238;2022-09-27T04:12:19;43.10;;;25.30;;
56581;SDS011;42463;52.214;21.238;2022-09-27T04:14:43;48.60;;;27.00;;
56581;SDS011;42463;52.214;21.238;2022-09-27T04:17:41;43.70;;;24.80;;
56581;SDS011;42463;52.214;21.238;2022-09-27T04:20:32;45.10;;;26.80;;
56581;SDS011;42463;52.214;21.238;2022-09-27T04:23:03;48.40;;;26.70;;
56581;SDS011;42463;52.214;21.238;2022-09-27T04:25:29;39.90;;;23.90;;
56581;SDS011;42463;52.214;21.238;2022-09-27T04:27:55;45.60;;;26.40;;
56581;SDS011;42463;52.214;21.238;2022-09-27T04:30:21;47.10;;;26.40;;
56581;SDS011;42463;52.214;21.238;2022-09-27T04:35:48;41.80;;;24.80;;
56581;SDS011;42463;52.214;21.238;2022-09-27T04:38:32;45.00;;;25.40;;
56581;SDS011;42463;52.214;21.238;2022-09-27T04:40:57;48.60;;;26.20;;
56581;SDS011;42463;52.214;21.238;2022-09-27T04:43:22;45.20;;;25.20;;
56581;SDS011;42463;52.214;21.238;2022-09-27T04:45:47;48.40;;;26.30;;
56581;SDS011;42463;52.214;21.238;2022-09-27T04:48:12;43.20;;;23.90;;
56581;SDS011;42463;52.214;21.238;2022-09-27T04:50:37;44.60;;;24.00;;
56581;SDS011;42463;52.214;21.238;2022-09-27T04:53:01;42.00;;;22.80;;
56581;SDS011;42463;52.214;21.238;2022-09-27T04:55:26;46.20;;;22.70;;
56581;SDS011;42463;52.214;21.238;2022-09-27T04:57:51;42.30;;;22.80;;
56581;SDS011;42463;52.214;21.238;2022-09-27T05:00:16;42.10;;;24.20;;
56581;SDS011;42463;52.214;21.238;2022-09-27T05:02:43;41.10;;;22.60;;
56581;SDS011;42463;52.214;21.238;2022-09-27T05:05:34;41.70;;;23.10;;
56581;SDS011;42463;52.214;21.238;2022-09-27T05:07:59;36.50;;;21.00;;
56581;SDS011;42463;52.214;21.238;2022-09-27T05:10:40;43.40;;;23.00;;
56581;SDS011;42463;52.214;21.238;2022-09-27T05:13:05;43.10;;;22.20;;
56581;SDS011;42463;52.214;21.238;2022-09-27T05:15:30;35.20;;;19.90;;
56581;SDS011;42463;52.214;21.238;2022-09-27T05:18:21;35.30;;;20.00;;
56581;SDS011;42463;52.214;21.238;2022-09-27T05:21:23;40.10;;;22.20;;
56581;SDS011;42463;52.214;21.238;2022-09-27T05:23:48;33.50;;;20.20;;
56581;SDS011;42463;52.214;21.238;2022-09-27T05:26:13;38.60;;;20.50;;
56581;SDS011;42463;52.214;21.238;2022-09-27T05:28:38;40.60;;;22.60;;
56581;SDS011;42463;52.214;21.238;2022-09-27T05:31:04;36.60;;;20.20;;
56581;SDS011;42463;52.214;21.238;2022-09-27T05:33:28;35.60;;;20.00;;
56581;SDS011;42463;52.214;21.238;2022-09-27T05:36:14;37.50;;;20.70;;
56581;SDS011;42463;52.214;21.238;2022-09-27T05:38:38;34.90;;;19.80;;
56581;SDS011;42463;52.214;21.238;2022-09-27T05:41:04;35.90;;;20.50;;
56581;SDS011;42463;52.214;21.238;2022-09-27T05:43:29;36.20;;;19.60;;
56581;SDS011;42463;52.214;21.238;2022-09-27T05:45:55;37.80;;;21.10;;
56581;SDS011;42463;52.214;21.238;2022-09-27T05:48:21;39.40;;;21.50;;
56581;SDS011;42463;52.214;21.238;2022-09-27T05:51:00;41.60;;;19.80;;
56581;SDS011;42463;52.214;21.238;2022-09-27T05:53:25;38.50;;;20.70;;
56581;SDS011;42463;52.214;21.238;2022-09-27T05:55:51;44.60;;;22.90;;
56581;SDS011;42463;52.214;21.238;2022-09-27T05:58:21;43.50;;;21.90;;
56581;SDS011;42463;52.214;21.238;2022-09-27T06:01:00;44.30;;;22.90;;
56581;SDS011;42463;52.214;21.238;2022-09-27T06:03:51;44.20;;;22.20;;
56581;SDS011;42463;52.214;21.238;2022-09-27T06:06:36;42.30;;;22.50;;
56581;SDS011;42463;52.214;21.238;2022-09-27T06:09:02;40.80;;;22.00;;
56581;SDS011;42463;52.214;21.238;2022-09-27T06:11:27;33.20;;;19.70;;
56581;SDS011;42463;52.214;21.238;2022-09-27T06:13:51;43.90;;;23.30;;
56581;SDS011;42463;52.214;21.238;2022-09-27T06:16:16;36.90;;;20.60;;
56581;SDS011;42463;52.214;21.238;2022-09-27T06:18:41;36.20;;;20.30;;
56581;SDS011;42463;52.214;21.238;2022-09-27T06:21:06;30.00;;;18.10;;
56581;SDS011;42463;52.214;21.238;2022-09-27T06:23:32;37.40;;;21.00;;
56581;SDS011;42463;52.214;21.238;2022-09-27T06:26:05;37.90;;;20.90;;
56581;SDS011;42463;52.214;21.238;2022-09-27T06:28:36;32.50;;;19.40;;
56581;SDS011;42463;52.214;21.238;2022-09-27T06:31:03;32.20;;;19.40;;
56581;SDS011;42463;52.214;21.238;2022-09-27T06:33:42;22.10;;;14.10;;
56581;SDS011;42463;52.214;21.238;2022-09-27T06:36:07;31.20;;;18.30;;
56581;SDS011;42463;52.214;21.238;2022-09-27T06:38:33;33.30;;;19.40;;
56581;SDS011;42463;52.214;21.238;2022-09-27T06:41:22;36.50;;;19.50;;
56581;SDS011;42463;52.214;21.238;2022-09-27T06:43:59;33.30;;;20.00;;
56581;SDS011;42463;52.214;21.238;2022-09-27T06:46:27;31.20;;;19.20;;
56581;SDS011;42463;52.214;21.238;2022-09-27T06:49:02;32.60;;;20.10;;
56581;SDS011;42463;52.214;21.238;2022-09-27T06:51:27;30.50;;;18.60;;
56581;SDS011;42463;52.214;21.238;2022-09-27T06:53:51;31.20;;;18.70;;
56581;SDS011;42463;52.214;21.238;2022-09-27T06:56:16;30.50;;;18.40;;
56581;SDS011;42463;52.214;21.238;2022-09-27T06:58:45;31.60;;;18.60;;
56581;SDS011;42463;52.214;21.238;2022-09-27T07:01:36;29.00;;;16.80;;
56581;SDS011;42463;52.214;21.238;2022-09-27T07:04:20;31.00;;;17.60;;
56581;SDS011;42463;52.214;21.238;2022-09-27T07:06:59;32.70;;;19.00;;
56581;SDS011;42463;52.214;21.238;2022-09-27T07:09:30;32.70;;;19.20;;
56581;SDS011;42463;52.214;21.238;2022-09-27T07:11:55;33.60;;;20.00;;
56581;SDS011;42463;52.214;21.238;2022-09-27T07:14:21;32.00;;;18.70;;
56581;SDS011;42463;52.214;21.238;2022-09-27T07:16:48;31.10;;;18.60;;
56581;SDS011;42463;52.214;21.238;2022-09-27T07:19:12;34.80;;;19.70;;
56581;SDS011;42463;52.214;21.238;2022-09-27T07:21:39;38.10;;;20.80;;
56581;SDS011;42463;52.214;21.238;2022-09-27T07:24:05;37.80;;;20.10;;
56581;SDS011;42463;52.214;21.238;2022-09-27T07:26:29;36.50;;;21.40;;
56581;SDS011;42463;52.214;21.238;2022-09-27T07:28:54;36.60;;;20.00;;
56581;SDS011;42463;52.214;21.238;2022-09-27T07:31:22;38.10;;;20.10;;
56581;SDS011;42463;52.214;21.238;2022-09-27T07:33:47;35.90;;;19.80;;
56581;SDS011;42463;52.214;21.238;2022-09-27T07:36:13;36.10;;;21.70;;
56581;SDS011;42463;52.214;21.238;2022-09-27T07:38:39;34.40;;;19.20;;
56581;SDS011;42463;52.214;21.238;2022-09-27T07:41:08;32.90;;;19.60;;
56581;SDS011;42463;52.214;21.238;2022-09-27T07:43:34;30.30;;;17.60;;
56581;SDS011;42463;52.214;21.238;2022-09-27T07:45:59;33.60;;;18.40;;
56581;SDS011;42463;52.214;21.238;2022-09-27T07:48:29;29.10;;;16.90;;
56581;SDS011;42463;52.214;21.238;2022-09-27T07:51:04;27.70;;;16.40;;
56581;SDS011;42463;52.214;21.238;2022-09-27T07:53:37;29.70;;;17.10;;
56581;SDS011;42463;52.214;21.238;2022-09-27T07:56:25;29.20;;;18.20;;
56581;SDS011;42463;52.214;21.238;2022-09-27T07:58:50;29.00;;;16.90;;
56581;SDS011;42463;52.214;21.238;2022-09-27T08:01:15;27.60;;;17.70;;
56581;SDS011;42463;52.214;21.238;2022-09-27T08:03:40;31.00;;;18.40;;
56581;SDS011;42463;52.214;21.238;2022-09-27T08:06:06;30.00;;;17.80;;
56581;SDS011;42463;52.214;21.238;2022-09-27T08:08:30;28.00;;;17.40;;
56581;SDS011;42463;52.214;21.238;2022-09-27T08:10:58;27.40;;;16.40;;
56581;SDS011;42463;52.214;21.238;2022-09-27T08:13:23;28.80;;;16.80;;
56581;SDS011;42463;52.214;21.238;2022-09-27T08:15:48;24.80;;;16.00;;
56581;SDS011;42463;52.214;21.238;2022-09-27T08:18:14;28.90;;;17.40;;
56581;SDS011;42463;52.214;21.238;2022-09-27T08:20:56;28.80;;;17.80;;
56581;SDS011;42463;52.214;21.238;2022-09-27T08:23:30;34.70;;;19.10;;
56581;SDS011;42463;52.214;21.238;2022-09-27T08:26:08;27.30;;;17.30;;
56581;SDS011;42463;52.214;21.238;2022-09-27T08:28:47;25.80;;;17.60;;
56581;SDS011;42463;52.214;21.238;2022-09-27T08:31:18;26.90;;;17.80;;
56581;SDS011;42463;52.214;21.238;2022-09-27T08:33:44;29.00;;;17.40;;
56581;SDS011;42463;52.214;21.238;2022-09-27T08:36:12;28.70;;;17.50;;
56581;SDS011;42463;52.214;21.238;2022-09-27T08:38:36;31.50;;;19.00;;
56581;SDS011;42463;52.214;21.238;2022-09-27T08:41:03;26.20;;;17.40;;
56581;SDS011;42463;52.214;21.238;2022-09-27T08:43:35;26.10;;;17.20;;
56581;SDS011;42463;52.214;21.238;2022-09-27T08:46:17;25.10;;;16.50;;
56581;SDS011;42463;52.214;21.238;2022-09-27T08:48:53;23.00;;;15.30;;
56581;SDS011;42463;52.214;21.238;2022-09-27T08:51:25;23.00;;;15.30;;
56581;SDS011;42463;52.214;21.238;2022-09-27T08:53:54;20.60;;;14.40;;
56581;SDS011;42463;52.214;21.238;2022-09-27T08:56:23;23.70;;;15.10;;
56581;SDS011;42463;52.214;21.238;2022-09-27T08:58:50;22.20;;;15.00;;
56581;SDS011;42463;52.214;21.238;2022-09-27T09:01:26;21.40;;;15.10;;
56581;SDS011;42463;52.214;21.238;2022-09-27T09:04:07;18.10;;;13.00;;
56581;SDS011;42463;52.214;21.238;2022-09-27T09:06:35;20.90;;;14.70;;
56581;SDS011;42463;52.214;21.238;2022-09-27T09:09:10;22.70;;;14.70;;
56581;SDS011;42463;52.214;21.238;2022-09-27T09:11:58;20.20;;;14.30;;
56581;SDS011;42463;52.214;21.238;2022-09-27T09:14:50;18.40;;;13.90;;
56581;SDS011;42463;52.214;21.238;2022-09-27T09:17:26;17.80;;;13.00;;
56581;SDS011;42463;52.214;21.238;2022-09-27T09:20:18;16.90;;;12.90;;
56581;SDS011;42463;52.214;21.238;2022-09-27T09:22:59;16.10;;;12.10;;
56581;SDS011;42463;52.214;21.238;2022-09-27T09:25:37;18.20;;;13.30;;
56581;SDS011;42463;52.214;21.238;2022-09-27T09:28:14;15.80;;;12.10;;
56581;SDS011;42463;52.214;21.238;2022-09-27T09:30:51;16.80;;;11.90;;
56581;SDS011;42463;52.214;21.238;2022-09-27T09:33:25;18.50;;;12.90;;
56581;SDS011;42463;52.214;21.238;2022-09-27T09:35:54;14.50;;;11.50;;
56581;SDS011;42463;52.214;21.238;2022-09-27T09:38:23;15.90;;;11.80;;
56581;SDS011;42463;52.214;21.238;2022-09-27T09:40:56;16.60;;;12.10;;
56581;SDS011;42463;52.214;21.238;2022-09-27T09:43:27;15.10;;;11.40;;
56581;SDS011;42463;52.214;21.238;2022-09-27T09:45:58;15.60;;;11.70;;
56581;SDS011;42463;52.214;21.238;2022-09-27T09:48:31;13.80;;;10.00;;
56581;SDS011;42463;52.214;21.238;2022-09-27T09:51:01;15.00;;;11.30;;
56581;SDS011;42463;52.214;21.238;2022-09-27T09:53:35;16.10;;;11.50;;
56581;SDS011;42463;52.214;21.238;2022-09-27T09:56:06;13.50;;;10.40;;
56581;SDS011;42463;52.214;21.238;2022-09-27T09:58:38;14.90;;;9.60;;
56581;SDS011;42463;52.214;21.238;2022-09-27T10:01:12;13.10;;;10.30;;
56581;SDS011;42463;52.214;21.238;2022-09-27T10:03:40;12.70;;;10.40;;
56581;SDS011;42463;52.214;21.238;2022-09-27T10:06:07;13.90;;;10.20;;
56581;SDS011;42463;52.214;21.238;2022-09-27T10:08:34;9.70;;;8.10;;
56581;SDS011;42463;52.214;21.238;2022-09-27T10:11:17;11.60;;;9.10;;
56581;SDS011;42463;52.214;21.238;2022-09-27T10:13:52;12.90;;;10.30;;
56581;SDS011;42463;52.214;21.238;2022-09-27T10:16:18;11.90;;;9.10;;
56581;SDS011;42463;52.214;21.238;2022-09-27T10:18:43;9.50;;;8.30;;
56581;SDS011;42463;52.214;21.238;2022-09-27T10:21:10;10.90;;;8.70;;
56581;SDS011;42463;52.214;21.238;2022-09-27T10:23:37;10.30;;;8.90;;
56581;SDS011;42463;52.214;21.238;2022-09-27T10:26:45;11.50;;;8.80;;
56581;SDS011;42463;52.214;21.238;2022-09-27T10:29:16;9.50;;;7.90;;
56581;SDS011;42463;52.214;21.238;2022-09-27T10:34:27;8.70;;;7.80;;
56581;SDS011;42463;52.214;21.238;2022-09-27T10:37:02;9.10;;;8.00;;
56581;SDS011;42463;52.214;21.238;2022-09-27T10:39:46;10.90;;;8.40;;
56581;SDS011;42463;52.214;21.238;2022-09-27T10:42:20;10.80;;;8.70;;
56581;SDS011;42463;52.214;21.238;2022-09-27T10:44:55;10.40;;;8.10;;
56581;SDS011;42463;52.214;21.238;2022-09-27T10:47:31;9.30;;;7.30;;
56581;SDS011;42463;52.214;21.238;2022-09-27T10:50:05;10.70;;;8.80;;
56581;SDS011;42463;52.214;21.238;2022-09-27T10:52:48;10.10;;;8.10;;
56581;SDS011;42463;52.214;21.238;2022-09-27T10:55:23;8.30;;;7.00;;
56581;SDS011;42463;52.214;21.238;2022-09-27T10:57:51;9.80;;;8.10;;
56581;SDS011;42463;52.214;21.238;2022-09-27T11:00:21;8.70;;;7.80;;
56581;SDS011;42463;52.214;21.238;2022-09-27T11:02:48;9.50;;;7.70;;
56581;SDS011;42463;52.214;21.238;2022-09-27T11:05:29;9.00;;;7.90;;
56581;SDS011;42463;52.214;21.238;2022-09-27T11:07:56;9.90;;;8.70;;
56581;SDS011;42463;52.214;21.238;2022-09-27T11:10:42;11.70;;;8.80;;
56581;SDS011;42463;52.214;21.238;2022-09-27T11:13:15;9.30;;;7.80;;
56581;SDS011;42463;52.214;21.238;2022-09-27T11:15:47;9.90;;;8.50;;
56581;SDS011;42463;52.214;21.238;2022-09-27T11:18:20;10.10;;;8.00;;
56581;SDS011;42463;52.214;21.238;2022-09-27T11:20:54;11.30;;;9.20;;
56581;SDS011;42463;52.214;21.238;2022-09-27T11:23:32;10.90;;;9.10;;
56581;SDS011;42463;52.214;21.238;2022-09-27T11:26:23;11.00;;;8.50;;
56581;SDS011;42463;52.214;21.238;2022-09-27T11:28:59;10.60;;;8.60;;
56581;SDS011;42463;52.214;21.238;2022-09-27T11:32:03;10.70;;;9.30;;
56581;SDS011;42463;52.214;21.238;2022-09-27T11:34:42;11.30;;;8.90;;
56581;SDS011;42463;52.214;21.238;2022-09-27T11:37:20;12.30;;;10.00;;
56581;SDS011;42463;52.214;21.238;2022-09-27T11:39:57;11.70;;;9.00;;
56581;SDS011;42463;52.214;21.238;2022-09-27T11:45:36;10.90;;;8.30;;
56581;SDS011;42463;52.214;21.238;2022-09-27T11:48:13;11.40;;;9.30;;
56581;SDS011;42463;52.214;21.238;2022-09-27T11:50:57;13.70;;;10.60;;
56581;SDS011;42463;52.214;21.238;2022-09-27T11:53:37;14.40;;;10.70;;
56581;SDS011;42463;52.214;21.238;2022-09-27T11:56:16;12.80;;;9.70;;
56581;SDS011;42463;52.214;21.238;2022-09-27T11:58:55;14.40;;;11.30;;
56581;SDS011;42463;52.214;21.238;2022-09-27T12:01:34;14.90;;;11.50;;
56581;SDS011;42463;52.214;21.238;2022-09-27T12:04:11;14.50;;;11.10;;
56581;SDS011;42463;52.214;21.238;2022-09-27T12:06:53;13.10;;;10.10;;
56581;SDS011;42463;52.214;21.238;2022-09-27T12:09:21;12.50;;;10.20;;
56581;SDS011;42463;52.214;21.238;2022-09-27T12:11:51;13.60;;;10.90;;
56581;SDS011;42463;52.214;21.238;2022-09-27T12:14:22;14.60;;;11.00;;
56581;SDS011;42463;52.214;21.238;2022-09-27T12:16:53;12.50;;;10.30;;
56581;SDS011;42463;52.214;21.238;2022-09-27T12:19:21;13.70;;;10.60;;
56581;SDS011;42463;52.214;21.238;2022-09-27T12:22:00;13.50;;;10.80;;
56581;SDS011;42463;52.214;21.238;2022-09-27T12:24:26;12.40;;;10.10;;
56581;SDS011;42463;52.214;21.238;2022-09-27T12:26:58;13.30;;;10.50;;
56581;SDS011;42463;52.214;21.238;2022-09-27T12:29:31;14.60;;;10.70;;
56581;SDS011;42463;52.214;21.238;2022-09-27T12:32:03;11.90;;;10.10;;
56581;SDS011;42463;52.214;21.238;2022-09-27T12:34:34;13.80;;;10.00;;
56581;SDS011;42463;52.214;21.238;2022-09-27T12:37:03;12.10;;;10.30;;
56581;SDS011;42463;52.214;21.238;2022-09-27T12:39:36;12.10;;;10.10;;
56581;SDS011;42463;52.214;21.238;2022-09-27T12:42:16;14.40;;;11.30;;
56581;SDS011;42463;52.214;21.238;2022-09-27T12:44:46;12.60;;;10.60;;
56581;SDS011;42463;52.214;21.238;2022-09-27T12:47:14;13.00;;;10.90;;
56581;SDS011;42463;52.214;21.238;2022-09-27T12:50:04;14.50;;;11.60;;
56581;SDS011;42463;52.214;21.238;2022-09-27T12:52:40;14.30;;;12.00;;
56581;SDS011;42463;52.214;21.238;2022-09-27T12:55:14;13.60;;;10.70;;
56581;SDS011;42463;52.214;21.238;2022-09-27T12:57:54;13.70;;;11.30;;
56581;SDS011;42463;52.214;21.238;2022-09-27T13:00:44;13.20;;;10.00;;
56581;SDS011;42463;52.214;21.238;2022-09-27T13:03:28;13.30;;;10.90;;
56581;SDS011;42463;52.214;21.238;2022-09-27T13:06:11;12.10;;;10.70;;
56581;SDS011;42463;52.214;21.238;2022-09-27T13:12:01;9.70;;;8.60;;
56581;SDS011;42463;52.214;21.238;2022-09-27T13:14:33;11.90;;;9.70;;
56581;SDS011;42463;52.214;21.238;2022-09-27T13:17:02;11.70;;;9.70;;
56581;SDS011;42463;52.214;21.238;2022-09-27T13:19:42;11.80;;;10.60;;
56581;SDS011;42463;52.214;21.238;2022-09-27T13:22:08;10.00;;;8.90;;
56581;SDS011;42463;52.214;21.238;2022-09-27T13:25:01;11.30;;;9.40;;
56581;SDS011;42463;52.214;21.238;2022-09-27T13:28:02;11.40;;;10.20;;
56581;SDS011;42463;52.214;21.238;2022-09-27T13:30:49;9.30;;;8.30;;
56581;SDS011;42463;52.214;21.238;2022-09-27T13:33:38;11.70;;;10.40;;
56581;SDS011;42463;52.214;21.238;2022-09-27T13:36:07;10.40;;;9.30;;
56581;SDS011;42463;52.214;21.238;2022-09-27T13:38:54;12.70;;;9.90;;
56581;SDS011;42463;52.214;21.238;2022-09-27T13:42:04;11.10;;;9.50;;
56581;SDS011;42463;52.214;21.238;2022-09-27T13:44:40;11.80;;;9.70;;
56581;SDS011;42463;52.214;21.238;2022-09-27T13:47:18;11.10;;;9.20;;
56581;SDS011;42463;52.214;21.238;2022-09-27T13:49:52;10.40;;;9.30;;
56581;SDS011;42463;52.214;21.238;2022-09-27T13:52:35;11.70;;;9.50;;
56581;SDS011;42463;52.214;21.238;2022-09-27T13:58:02;12.10;;;8.80;;
56581;SDS011;42463;52.214;21.238;2022-09-27T14:00:37;9.50;;;8.40;;
56581;SDS011;42463;52.214;21.238;2022-09-27T14:03:05;10.90;;;9.60;;
56581;SDS011;42463;52.214;21.238;2022-09-27T14:05:38;11.50;;;9.90;;
56581;SDS011;42463;52.214;21.238;2022-09-27T14:08:13;9.90;;;8.80;;
56581;SDS011;42463;52.214;21.238;2022-09-27T14:10:51;10.40;;;8.90;;
56581;SDS011;42463;52.214;21.238;2022-09-27T14:13:18;10.00;;;8.90;;
56581;SDS011;42463;52.214;21.238;2022-09-27T14:15:52;9.90;;;8.80;;
56581;SDS011;42463;52.214;21.238;2022-09-27T14:18:18;9.80;;;8.60;;
56581;SDS011;42463;52.214;21.238;2022-09-27T14:20:45;10.50;;;8.80;;
56581;SDS011;42463;52.214;21.238;2022-09-27T14:23:42;10.00;;;8.90;;
56581;SDS011;42463;52.214;21.238;2022-09-27T14:26:21;9.50;;;8.50;;
56581;SDS011;42463;52.214;21.238;2022-09-27T14:28:47;10.00;;;9.00;;
56581;SDS011;42463;52.214;21.238;2022-09-27T14:31:23;10.20;;;9.10;;
56581;SDS011;42463;52.214;21.238;2022-09-27T14:34:05;11.20;;;10.00;;
56581;SDS011;42463;52.214;21.238;2022-09-27T14:36:31;10.00;;;8.90;;
56581;SDS011;42463;52.214;21.238;2022-09-27T14:39:19;10.70;;;8.70;;
56581;SDS011;42463;52.214;21.238;2022-09-27T14:41:47;9.60;;;8.70;;
56581;SDS011;42463;52.214;21.238;2022-09-27T14:44:14;10.00;;;9.00;;
56581;SDS011;42463;52.214;21.238;2022-09-27T14:46:40;11.50;;;9.50;;
56581;SDS011;42463;52.214;21.238;2022-09-27T14:49:15;9.80;;;8.70;;
56581;SDS011;42463;52.214;21.238;2022-09-27T14:51:45;14.20;;;9.50;;
56581;SDS011;42463;52.214;21.238;2022-09-27T14:54:19;12.10;;;9.70;;
56581;SDS011;42463;52.214;21.238;2022-09-27T14:56:46;10.40;;;9.20;;
56581;SDS011;42463;52.214;21.238;2022-09-27T14:59:12;10.20;;;9.10;;
56581;SDS011;42463;52.214;21.238;2022-09-27T15:01:39;10.80;;;9.70;;
56581;SDS011;42463;52.214;21.238;2022-09-27T15:04:12;11.40;;;10.30;;
56581;SDS011;42463;52.214;21.238;2022-09-27T15:06:37;10.70;;;9.60;;
56581;SDS011;42463;52.214;21.238;2022-09-27T15:09:03;11.50;;;10.10;;